createdAt,value
2023-04-02T00:00:00.120Z,5.56
2023-04-02T00:01:00.144Z,5.60
2023-04-02T00:02:00.264Z,5.65
2023-04-02T00:03:00.396Z,5.66
2023-04-02T00:04:00.271Z,5.71
2023-04-02T00:05:00.342Z,5.71
2023-04-02T00:06:00.427Z,5.74
2023-04-02T00:07:00.470Z,5.76
2023-04-02T00:08:00.468Z,5.77
2023-04-02T00:09:00.494Z,5.80
2023-04-02T00:10:00.518Z,5.80
2023-04-02T00:11:00.541Z,5.81
2023-04-02T00:12:00.588Z,5.81
2023-04-02T00:13:00.583Z,5.83
2023-04-02T00:14:00.630Z,5.86
2023-04-02T00:15:00.644Z,5.87
2023-04-02T00:16:00.697Z,5.90
2023-04-02T00:17:00.705Z,5.93
2023-04-02T00:18:00.766Z,5.93
2023-04-02T00:19:01.536Z,5.97
2023-04-02T00:20:00.772Z,5.97
2023-04-02T00:21:00.830Z,5.97
2023-04-02T00:22:00.890Z,5.96
2023-04-02T00:23:00.913Z,5.96
2023-04-02T00:24:00.928Z,5.98
2023-04-02T00:25:00.981Z,6.00
2023-04-02T00:26:01.004Z,5.97
2023-04-02T00:27:01.054Z,6.04
2023-04-02T00:28:01.122Z,6.00
2023-04-02T00:29:01.115Z,6.00
2023-04-02T00:30:01.128Z,6.02
2023-04-02T00:31:01.149Z,6.01
2023-04-02T00:32:01.254Z,6.04
2023-04-02T00:33:01.229Z,6.01
2023-04-02T00:34:01.237Z,5.98
2023-04-02T00:35:01.266Z,6.02
2023-04-02T00:36:01.292Z,6.04
2023-04-02T00:37:01.289Z,6.08
2023-04-02T00:38:01.380Z,6.05
2023-04-02T00:39:01.465Z,6.11
2023-04-02T00:40:01.489Z,6.12
2023-04-02T00:41:01.583Z,6.14
2023-04-02T00:42:01.662Z,6.15
2023-04-02T00:43:01.765Z,6.14
2023-04-02T00:44:01.853Z,6.18
2023-04-02T00:45:01.900Z,6.15
2023-04-02T00:46:01.970Z,6.15
2023-04-02T00:47:02.014Z,6.15
2023-04-02T00:48:02.126Z,6.15
2023-04-02T00:49:02.274Z,6.18
2023-04-02T00:50:02.254Z,6.21
2023-04-02T00:51:02.328Z,6.21
2023-04-02T00:52:02.389Z,6.24
2023-04-02T00:53:02.428Z,6.19
2023-04-02T00:54:02.506Z,6.24
2023-04-02T00:55:02.529Z,6.24
2023-04-02T00:56:02.603Z,6.25
2023-04-02T00:57:02.660Z,6.22
2023-04-02T00:58:02.713Z,6.25
2023-04-02T00:59:02.725Z,6.22
2023-04-02T01:00:02.782Z,6.26
2023-04-02T01:01:02.916Z,6.26
2023-04-02T01:02:02.914Z,6.25
2023-04-02T01:03:03.026Z,6.25
2023-04-02T01:04:03.217Z,6.28
2023-04-02T01:05:03.166Z,6.29
2023-04-02T01:06:03.243Z,6.26
2023-04-02T01:07:03.302Z,6.31
2023-04-02T01:08:03.409Z,6.28
2023-04-02T01:09:03.472Z,6.28
2023-04-02T01:10:03.544Z,6.28
2023-04-02T01:11:03.645Z,6.25
2023-04-02T01:12:03.720Z,6.26
2023-04-02T01:13:03.814Z,6.26
2023-04-02T01:14:03.921Z,6.26
2023-04-02T01:15:04.059Z,6.25
2023-04-02T01:16:04.109Z,6.26
2023-04-02T01:17:04.158Z,6.25
2023-04-02T01:18:04.326Z,6.26
2023-04-02T01:19:04.333Z,6.25
2023-04-02T01:20:04.443Z,6.25
2023-04-02T01:21:04.488Z,6.24
2023-04-02T01:22:04.577Z,6.24
2023-04-02T01:23:04.659Z,6.25
2023-04-02T01:24:04.726Z,6.24
2023-04-02T01:25:04.762Z,6.24
2023-04-02T01:26:04.803Z,6.26
2023-04-02T01:27:04.873Z,6.26
2023-04-02T01:28:04.965Z,6.26
2023-04-02T01:29:05.070Z,6.28
2023-04-02T01:30:05.147Z,6.26
2023-04-02T01:31:05.277Z,6.26
2023-04-02T01:32:05.305Z,6.25
2023-04-02T01:33:05.434Z,6.24
2023-04-02T01:34:05.485Z,6.28
2023-04-02T01:35:05.561Z,6.25
2023-04-02T01:36:05.645Z,5.96
2023-04-02T01:37:05.692Z,5.70
2023-04-02T01:38:05.767Z,5.90
2023-04-02T01:39:05.811Z,5.97
2023-04-02T01:40:05.931Z,6.01
2023-04-02T01:41:05.953Z,6.05
2023-04-02T01:42:05.980Z,6.07
2023-04-02T01:43:06.038Z,6.11
2023-04-02T01:44:06.118Z,6.15
2023-04-02T01:45:06.199Z,6.14
2023-04-02T01:46:06.274Z,6.18
2023-04-02T01:47:06.342Z,6.18
2023-04-02T01:48:06.427Z,6.18
2023-04-02T01:49:06.571Z,6.18
2023-04-02T01:50:06.544Z,6.21
2023-04-02T01:51:06.612Z,6.22
2023-04-02T01:52:06.652Z,6.25
2023-04-02T01:53:06.712Z,6.24
2023-04-02T01:54:06.756Z,6.21
2023-04-02T01:55:06.804Z,6.19
2023-04-02T01:56:06.898Z,6.24
2023-04-02T01:57:07.055Z,6.25
2023-04-02T01:58:07.076Z,6.25
2023-04-02T01:59:07.138Z,6.31
2023-04-02T02:00:07.258Z,6.32
2023-04-02T02:01:07.340Z,6.39
2023-04-02T02:02:07.421Z,6.38
2023-04-02T02:03:07.525Z,6.36
2023-04-02T02:04:07.489Z,6.38
2023-04-02T02:05:07.560Z,6.38
2023-04-02T02:06:07.567Z,6.35
2023-04-02T02:07:07.597Z,6.36
2023-04-02T02:08:08.546Z,6.33
2023-04-02T02:09:08.546Z,6.32
2023-04-02T02:10:07.736Z,6.32
2023-04-02T02:11:07.732Z,6.29
2023-04-02T02:12:07.740Z,6.31
2023-04-02T02:13:07.769Z,6.32
2023-04-02T02:14:07.802Z,6.31
2023-04-02T02:15:07.814Z,6.33
2023-04-02T02:16:07.908Z,6.29
2023-04-02T02:17:07.883Z,6.31
2023-04-02T02:18:07.919Z,6.31
2023-04-02T02:19:08.537Z,6.32
2023-04-02T02:20:07.976Z,6.32
2023-04-02T02:21:07.995Z,6.29
2023-04-02T02:22:08.058Z,6.31
2023-04-02T02:23:08.064Z,6.31
2023-04-02T02:24:08.136Z,6.26
2023-04-02T02:25:08.201Z,6.25
2023-04-02T02:26:09.051Z,6.28
2023-04-02T02:27:08.317Z,6.29
2023-04-02T02:28:08.313Z,6.26
2023-04-02T02:29:08.390Z,6.26
2023-04-02T02:30:08.492Z,6.28
2023-04-02T02:31:09.047Z,6.25
2023-04-02T02:32:08.654Z,6.29
2023-04-02T02:33:08.628Z,6.25
2023-04-02T02:34:08.672Z,6.25
2023-04-02T02:35:08.767Z,6.22
2023-04-02T02:36:08.827Z,6.24
2023-04-02T02:37:08.934Z,6.25
2023-04-02T02:38:08.947Z,6.26
2023-04-02T02:39:09.576Z,6.24
2023-04-02T02:40:08.983Z,6.25
2023-04-02T02:41:09.025Z,6.25
2023-04-02T02:42:09.564Z,6.22
2023-04-02T02:43:09.061Z,6.31
2023-04-02T02:44:10.265Z,6.33
2023-04-02T02:45:09.086Z,6.33
2023-04-02T02:46:09.115Z,6.35
2023-04-02T02:47:09.203Z,6.33
2023-04-02T02:48:09.161Z,6.32
2023-04-02T02:49:09.180Z,6.36
2023-04-02T02:50:09.337Z,6.35
2023-04-02T02:51:09.244Z,6.36
2023-04-02T02:52:10.049Z,6.35
2023-04-02T02:53:09.309Z,6.32
2023-04-02T02:54:09.583Z,6.35
2023-04-02T02:55:09.438Z,6.35
2023-04-02T02:56:09.484Z,6.36
2023-04-02T02:57:10.564Z,6.38
2023-04-02T02:58:10.548Z,6.35
2023-04-02T02:59:09.757Z,6.36
2023-04-02T03:00:09.868Z,6.38
2023-04-02T03:01:09.987Z,6.35
2023-04-02T03:02:10.009Z,6.39
2023-04-02T03:03:10.169Z,6.39
2023-04-02T03:04:10.266Z,6.38
2023-04-02T03:05:10.294Z,6.43
2023-04-02T03:06:10.351Z,6.42
2023-04-02T03:07:10.424Z,6.40
2023-04-02T03:08:10.549Z,6.38
2023-04-02T03:09:10.679Z,6.36
2023-04-02T03:10:10.742Z,6.38
2023-04-02T03:11:10.758Z,6.39
2023-04-02T03:12:11.554Z,6.38
2023-04-02T03:13:10.781Z,6.36
2023-04-02T03:14:10.854Z,6.35
2023-04-02T03:15:10.877Z,6.35
2023-04-02T03:16:10.906Z,6.31
2023-04-02T03:17:10.876Z,6.32
2023-04-02T03:18:10.910Z,6.31
2023-04-02T03:19:10.925Z,6.32
2023-04-02T03:20:10.955Z,6.33
2023-04-02T03:21:11.006Z,6.33
2023-04-02T03:22:11.030Z,6.33
2023-04-02T03:23:11.044Z,6.35
2023-04-02T03:24:11.065Z,6.36
2023-04-02T03:25:11.114Z,6.33
2023-04-02T03:26:11.152Z,6.33
2023-04-02T03:27:11.136Z,6.32
2023-04-02T03:28:11.170Z,6.32
2023-04-02T03:29:11.192Z,6.29
2023-04-02T03:30:12.102Z,6.32
2023-04-02T03:31:11.343Z,6.31
2023-04-02T03:32:11.260Z,6.31
2023-04-02T03:33:11.290Z,6.32
2023-04-02T03:34:11.343Z,6.31
2023-04-02T03:35:11.354Z,6.31
2023-04-02T03:36:11.416Z,6.33
2023-04-02T03:37:11.481Z,6.35
2023-04-02T03:38:11.537Z,6.33
2023-04-02T03:39:11.563Z,6.33
2023-04-02T03:40:12.048Z,6.31
2023-04-02T03:41:11.578Z,6.28
2023-04-02T03:42:11.606Z,6.31
2023-04-02T03:43:12.548Z,6.29
2023-04-02T03:44:11.681Z,6.29
2023-04-02T03:45:11.715Z,6.31
2023-04-02T03:46:12.145Z,6.31
2023-04-02T03:47:11.750Z,6.32
2023-04-02T03:48:11.858Z,6.31
2023-04-02T03:49:13.570Z,6.32
2023-04-02T03:50:11.857Z,6.35
2023-04-02T03:51:11.893Z,6.32
2023-04-02T03:52:12.050Z,6.29
2023-04-02T03:53:12.030Z,6.32
2023-04-02T03:54:12.037Z,6.32
2023-04-02T03:55:12.104Z,6.33
2023-04-02T03:56:12.145Z,6.29
2023-04-02T03:57:12.239Z,6.29
2023-04-02T03:58:13.357Z,6.29
2023-04-02T03:59:12.392Z,6.28
2023-04-02T04:00:12.560Z,6.29
2023-04-02T04:01:12.581Z,6.22
2023-04-02T04:02:12.691Z,6.25
2023-04-02T04:03:12.782Z,6.24
2023-04-02T04:04:12.824Z,6.24
2023-04-02T04:05:12.841Z,6.25
2023-04-02T04:06:12.907Z,6.26
2023-04-02T04:07:12.939Z,6.24
2023-04-02T04:08:13.023Z,6.26
2023-04-02T04:09:13.121Z,6.22
2023-04-02T04:10:13.204Z,6.24
2023-04-02T04:11:13.334Z,6.24
2023-04-02T04:12:13.358Z,6.22
2023-04-02T04:13:13.433Z,6.22
2023-04-02T04:14:13.581Z,6.14
2023-04-02T04:15:13.625Z,6.15
2023-04-02T04:16:13.803Z,6.17
2023-04-02T04:17:13.903Z,6.17
2023-04-02T04:18:13.919Z,6.18
2023-04-02T04:19:13.991Z,6.15
2023-04-02T04:20:14.080Z,6.15
2023-04-02T04:21:14.127Z,6.12
2023-04-02T04:22:14.137Z,6.12
2023-04-02T04:23:14.201Z,6.10
2023-04-02T04:24:14.240Z,6.11
2023-04-02T04:25:14.303Z,6.10
2023-04-02T04:26:14.374Z,6.07
2023-04-02T04:27:15.063Z,6.08
2023-04-02T04:28:14.472Z,6.08
2023-04-02T04:29:14.535Z,6.05
2023-04-02T04:30:14.626Z,6.07
2023-04-02T04:31:14.735Z,6.07
2023-04-02T04:32:14.725Z,6.08
2023-04-02T04:33:15.738Z,6.07
2023-04-02T04:34:14.821Z,6.08
2023-04-02T04:35:14.888Z,6.07
2023-04-02T04:36:14.970Z,6.04
2023-04-02T04:37:14.973Z,6.07
2023-04-02T04:38:15.019Z,6.05
2023-04-02T04:39:15.073Z,6.07
2023-04-02T04:40:16.076Z,6.07
2023-04-02T04:41:15.163Z,6.05
2023-04-02T04:42:15.236Z,6.04
2023-04-02T04:43:15.327Z,6.04
2023-04-02T04:44:16.095Z,6.08
2023-04-02T04:45:15.382Z,6.04
2023-04-02T04:46:15.553Z,6.02
2023-04-02T04:47:15.591Z,6.04
2023-04-02T04:48:15.556Z,6.02
2023-04-02T04:49:15.638Z,5.97
2023-04-02T04:50:15.697Z,5.96
2023-04-02T04:51:15.697Z,5.97
2023-04-02T04:52:15.776Z,5.94
2023-04-02T04:53:15.807Z,5.97
2023-04-02T04:54:15.833Z,5.91
2023-04-02T04:55:15.983Z,5.94
2023-04-02T04:56:19.257Z,5.93
2023-04-02T04:57:16.021Z,5.91
2023-04-02T04:58:16.022Z,5.90
2023-04-02T04:59:16.078Z,5.90
2023-04-02T05:00:16.081Z,5.90
2023-04-02T05:01:16.199Z,5.89
2023-04-02T05:02:16.174Z,5.93
2023-04-02T05:03:16.198Z,5.90
2023-04-02T05:04:16.287Z,5.96
2023-04-02T05:05:16.274Z,5.96
2023-04-02T05:06:16.304Z,5.98
2023-04-02T05:07:16.341Z,6.00
2023-04-02T05:08:16.378Z,6.00
2023-04-02T05:09:16.428Z,6.05
2023-04-02T05:10:16.480Z,6.04
2023-04-02T05:11:16.481Z,6.02
2023-04-02T05:12:16.519Z,6.05
2023-04-02T05:13:16.555Z,6.07
2023-04-02T05:14:16.579Z,6.07
2023-04-02T05:15:16.613Z,6.12
2023-04-02T05:16:16.683Z,6.12
2023-04-02T05:17:16.666Z,6.17
2023-04-02T05:18:16.705Z,6.18
2023-04-02T05:19:16.736Z,6.19
2023-04-02T05:20:16.755Z,6.22
2023-04-02T05:21:16.796Z,6.25
2023-04-02T05:22:17.083Z,6.28
2023-04-02T05:23:16.978Z,6.29
2023-04-02T05:24:16.915Z,6.29
2023-04-02T05:25:16.975Z,6.31
2023-04-02T05:26:17.568Z,6.33
2023-04-02T05:27:17.092Z,6.36
2023-04-02T05:28:17.122Z,6.39
2023-04-02T05:29:18.079Z,6.40
2023-04-02T05:30:18.166Z,6.43
2023-04-02T05:31:17.487Z,6.36
2023-04-02T05:32:17.472Z,6.47
2023-04-02T05:33:17.566Z,6.56
2023-04-02T05:34:17.630Z,6.65
2023-04-02T05:35:17.713Z,6.73
2023-04-02T05:36:17.803Z,6.72
2023-04-02T05:37:17.908Z,6.73
2023-04-02T05:38:17.929Z,6.77
2023-04-02T05:39:18.034Z,6.80
2023-04-02T05:40:18.129Z,6.80
2023-04-02T05:41:18.205Z,6.86
2023-04-02T05:42:18.265Z,6.90
2023-04-02T05:43:18.311Z,6.97
2023-04-02T05:44:18.385Z,6.98
2023-04-02T05:45:18.424Z,7.04
2023-04-02T05:46:18.469Z,7.07
2023-04-02T05:47:18.443Z,7.14
2023-04-02T05:48:18.457Z,7.19
2023-04-02T05:49:18.485Z,7.23
2023-04-02T05:50:18.523Z,7.29
2023-04-02T05:51:18.525Z,7.33
2023-04-02T05:52:18.571Z,7.38
2023-04-02T05:53:18.575Z,7.46
2023-04-02T05:54:18.574Z,7.47
2023-04-02T05:55:18.600Z,7.55
2023-04-02T05:56:18.594Z,7.60
2023-04-02T05:57:19.358Z,7.62
2023-04-02T05:59:18.645Z,7.71
2023-04-02T06:00:19.565Z,7.76
2023-04-02T06:01:18.669Z,7.78
2023-04-02T06:02:18.761Z,7.83
2023-04-02T06:03:18.767Z,7.87
2023-04-02T06:04:18.744Z,7.91
2023-04-02T06:05:18.753Z,7.94
2023-04-02T06:06:18.798Z,8.01
2023-04-02T06:07:18.799Z,8.08
2023-04-02T06:08:18.817Z,8.13
2023-04-02T06:09:18.823Z,8.19
2023-04-02T06:10:18.826Z,8.28
2023-04-02T06:11:18.840Z,8.35
2023-04-02T06:12:18.859Z,8.35
2023-04-02T06:13:18.834Z,8.40
2023-04-02T06:14:18.842Z,8.42
2023-04-02T06:15:18.880Z,8.46
2023-04-02T06:16:18.876Z,8.52
2023-04-02T06:17:18.886Z,8.56
2023-04-02T06:18:18.902Z,8.57
2023-04-02T06:19:18.906Z,8.65
2023-04-02T06:20:18.912Z,8.70
2023-04-02T06:21:18.910Z,8.74
2023-04-02T06:22:18.919Z,8.78
2023-04-02T06:23:18.981Z,8.82
2023-04-02T06:24:18.916Z,8.84
2023-04-02T06:25:18.924Z,8.88
2023-04-02T06:26:18.948Z,8.91
2023-04-02T06:27:18.954Z,8.98
2023-04-02T06:28:19.032Z,9.02
2023-04-02T06:29:18.993Z,9.11
2023-04-02T06:30:19.006Z,9.14
2023-04-02T06:31:19.043Z,9.15
2023-04-02T06:32:19.068Z,9.18
2023-04-02T06:33:19.097Z,9.22
2023-04-02T06:34:19.102Z,9.23
2023-04-02T06:35:19.306Z,9.23
2023-04-02T06:36:19.154Z,9.33
2023-04-02T06:37:19.142Z,9.37
2023-04-02T06:38:19.184Z,9.44
2023-04-02T06:39:19.261Z,9.46
2023-04-02T06:40:19.333Z,9.54
2023-04-02T06:41:19.399Z,9.54
2023-04-02T06:42:19.479Z,9.60
2023-04-02T06:43:19.514Z,9.69
2023-04-02T06:44:19.587Z,9.70
2023-04-02T06:45:19.610Z,9.74
2023-04-02T06:46:19.650Z,9.82
2023-04-02T06:47:19.679Z,9.85
2023-04-02T06:48:19.695Z,9.89
2023-04-02T06:49:19.712Z,9.97
2023-04-02T06:50:19.717Z,10.02
2023-04-02T06:51:19.716Z,10.08
2023-04-02T06:52:19.747Z,10.10
2023-04-02T06:53:19.759Z,10.09
2023-04-02T06:54:19.753Z,10.10
2023-04-02T06:55:19.845Z,10.09
2023-04-02T06:56:19.807Z,10.12
2023-04-02T06:57:19.829Z,10.13
2023-04-02T06:58:19.832Z,10.15
2023-04-02T06:59:19.844Z,10.17
2023-04-02T07:00:19.839Z,10.19
2023-04-02T07:01:19.868Z,10.19
2023-04-02T07:02:19.845Z,10.20
2023-04-02T07:03:19.849Z,10.25
2023-04-02T07:04:20.634Z,10.25
2023-04-02T07:05:19.925Z,10.28
2023-04-02T07:06:20.591Z,10.31
2023-04-02T07:07:20.032Z,10.33
2023-04-02T07:08:20.106Z,10.33
2023-04-02T07:09:20.171Z,10.36
2023-04-02T07:10:20.212Z,10.39
2023-04-02T07:11:21.049Z,10.50
2023-04-02T07:12:20.305Z,10.54
2023-04-02T07:13:20.315Z,10.49
2023-04-02T07:14:20.295Z,10.56
2023-04-02T07:15:20.303Z,10.60
2023-04-02T07:16:20.364Z,10.57
2023-04-02T07:17:20.327Z,10.67
2023-04-02T07:18:20.303Z,10.64
2023-04-02T07:19:20.335Z,10.61
2023-04-02T07:20:21.099Z,10.54
2023-04-02T07:21:20.315Z,10.59
2023-04-02T07:22:20.303Z,10.63
2023-04-02T07:23:20.307Z,10.71
2023-04-02T07:24:20.297Z,10.71
2023-04-02T07:25:20.310Z,10.77
2023-04-02T07:26:20.308Z,10.79
2023-04-02T07:27:20.318Z,10.87
2023-04-02T07:28:22.006Z,10.87
2023-04-02T07:29:20.345Z,10.91
2023-04-02T07:30:20.352Z,10.92
2023-04-02T07:31:20.420Z,10.99
2023-04-02T07:32:20.367Z,11.02
2023-04-02T07:33:20.411Z,11.09
2023-04-02T07:34:20.465Z,11.11
2023-04-02T07:35:20.505Z,10.96
2023-04-02T07:36:20.601Z,10.91
2023-04-02T07:37:20.644Z,10.85
2023-04-02T07:38:20.705Z,10.94
2023-04-02T07:39:20.729Z,11.11
2023-04-02T07:40:20.780Z,11.26
2023-04-02T07:42:04.198Z,11.54
2023-04-02T07:43:04.169Z,11.77
2023-04-02T07:44:04.174Z,11.98
2023-04-02T07:45:06.091Z,12.11
2023-04-02T07:46:04.136Z,12.11
2023-04-02T07:47:04.240Z,12.30
2023-04-02T07:48:04.120Z,12.51
2023-04-02T07:49:04.068Z,12.58
2023-04-02T07:50:04.041Z,12.44
2023-04-02T07:51:04.012Z,12.46
2023-04-02T07:52:03.987Z,11.94
2023-04-02T07:53:03.971Z,11.44
2023-04-02T07:54:03.948Z,11.22
2023-04-02T07:55:03.892Z,11.41
2023-04-02T07:56:03.872Z,11.60
2023-04-02T07:57:03.913Z,11.43
2023-04-02T07:58:03.828Z,11.41
2023-04-02T07:59:03.813Z,11.68
2023-04-02T08:00:03.832Z,11.46
2023-04-02T08:01:03.885Z,11.06
2023-04-02T08:02:03.752Z,10.06
2023-04-02T08:03:03.851Z,10.49
2023-04-02T08:04:03.739Z,10.15
2023-04-02T08:05:03.699Z,10.53
2023-04-02T08:06:03.691Z,10.43
2023-04-02T08:07:04.376Z,10.68
2023-04-02T08:08:03.743Z,10.63
2023-04-02T08:09:03.703Z,10.98
2023-04-02T08:10:03.754Z,10.68
2023-04-02T08:11:03.737Z,11.13
2023-04-02T08:12:03.698Z,11.40
2023-04-02T08:13:03.681Z,10.90
2023-04-02T08:14:03.670Z,10.26
2023-04-02T08:15:03.652Z,10.44
2023-04-02T08:16:03.697Z,10.12
2023-04-02T08:17:03.660Z,10.13
2023-04-02T08:18:03.701Z,9.51
2023-04-02T08:19:03.658Z,9.08
2023-04-02T08:20:03.681Z,9.60
2023-04-02T08:21:03.686Z,9.74
2023-04-02T08:22:03.756Z,9.63
2023-04-02T08:23:03.771Z,9.81
2023-04-02T08:24:03.841Z,10.33
2023-04-02T08:25:03.813Z,10.71
2023-04-02T08:26:03.844Z,11.43
2023-04-02T08:27:03.864Z,11.74
2023-04-02T08:28:03.898Z,11.23
2023-04-02T08:29:03.984Z,10.98
2023-04-02T08:30:03.944Z,10.88
2023-04-02T08:31:04.041Z,10.42
2023-04-02T08:32:04.935Z,10.31
2023-04-02T08:33:04.033Z,10.35
2023-04-02T08:34:04.018Z,10.05
2023-04-02T08:35:04.049Z,10.08
2023-04-02T08:36:04.125Z,10.22
2023-04-02T08:37:04.045Z,9.40
2023-04-02T08:38:04.061Z,10.09
2023-04-02T08:39:04.087Z,9.81
2023-04-02T08:40:04.084Z,9.80
2023-04-02T08:41:04.117Z,10.16
2023-04-02T08:42:04.139Z,10.36
2023-04-02T08:43:04.168Z,11.12
2023-04-02T08:44:04.246Z,10.49
2023-04-02T08:45:13.713Z,10.72
2023-04-02T08:46:05.243Z,10.68
2023-04-02T08:47:04.204Z,10.28
2023-04-02T08:48:04.264Z,10.47
2023-04-02T08:49:04.257Z,10.37
2023-04-02T08:50:04.105Z,10.53
2023-04-02T08:51:04.903Z,10.64
2023-04-02T08:52:04.047Z,10.63
2023-04-02T08:53:04.019Z,10.05
2023-04-02T08:54:03.998Z,10.12
2023-04-02T08:55:03.952Z,10.13
2023-04-02T08:56:03.901Z,10.72
2023-04-02T08:57:03.909Z,11.21
2023-04-02T08:58:03.926Z,11.57
2023-04-02T08:59:03.875Z,11.68
2023-04-02T09:00:04.414Z,11.67
2023-04-02T09:01:03.749Z,11.95
2023-04-02T09:02:03.797Z,11.82
2023-04-02T09:03:03.731Z,12.22
2023-04-02T09:04:06.396Z,12.54
2023-04-02T09:05:05.416Z,12.70
2023-04-02T09:06:03.606Z,12.87
2023-04-02T09:07:03.547Z,12.85
2023-04-02T09:08:03.520Z,12.68
2023-04-02T09:09:03.528Z,13.16
2023-04-02T09:10:04.382Z,13.50
2023-04-02T09:11:03.425Z,13.56
2023-04-02T09:12:03.360Z,13.32
2023-04-02T09:13:03.319Z,14.11
2023-04-02T09:14:03.895Z,14.43
2023-04-02T09:15:03.886Z,14.46
2023-04-02T09:16:03.220Z,14.75
2023-04-02T09:17:03.150Z,14.91
2023-04-02T09:18:03.249Z,14.85
2023-04-02T09:19:03.099Z,14.30
2023-04-02T09:20:03.899Z,13.84
2023-04-02T09:21:02.996Z,12.60
2023-04-02T09:22:02.967Z,12.90
2023-04-02T09:23:02.929Z,12.99
2023-04-02T09:24:04.040Z,12.64
2023-04-02T09:25:02.882Z,12.74
2023-04-02T09:26:04.827Z,13.18
2023-04-02T09:27:02.856Z,12.90
2023-04-02T09:28:02.883Z,12.73
2023-04-02T09:29:02.816Z,12.40
2023-04-02T09:30:02.750Z,12.74
2023-04-02T09:31:03.328Z,12.78
2023-04-02T09:32:02.725Z,12.80
2023-04-02T09:33:03.505Z,12.73
2023-04-02T09:34:02.648Z,12.33
2023-04-02T09:35:05.639Z,12.78
2023-04-02T09:36:03.659Z,12.30
2023-04-02T09:37:02.581Z,11.94
2023-04-02T09:38:04.418Z,11.30
2023-04-02T09:39:02.530Z,11.04
2023-04-02T09:40:02.527Z,11.50
2023-04-02T09:41:02.495Z,11.70
2023-04-02T09:42:05.757Z,11.16
2023-04-02T09:43:02.465Z,11.26
2023-04-02T09:44:03.385Z,11.41
2023-04-02T09:45:02.438Z,11.51
2023-04-02T09:46:02.416Z,11.39
2023-04-02T09:47:02.400Z,11.60
2023-04-02T09:48:02.383Z,11.95
2023-04-02T09:49:02.363Z,12.33
2023-04-02T09:50:02.362Z,12.53
2023-04-02T09:51:02.338Z,12.43
2023-04-02T09:52:02.336Z,12.37
2023-04-02T09:53:02.261Z,12.84
2023-04-02T09:54:02.208Z,12.85
2023-04-02T09:55:02.206Z,12.73
2023-04-02T09:56:02.172Z,13.13
2023-04-02T09:57:02.203Z,13.60
2023-04-02T09:58:03.102Z,13.40
2023-04-02T09:59:02.077Z,12.46
2023-04-02T10:00:02.078Z,12.74
2023-04-02T10:01:03.975Z,13.18
2023-04-02T10:02:01.972Z,12.99
2023-04-02T10:03:02.033Z,13.22
2023-04-02T10:04:02.933Z,13.43
2023-04-02T10:05:01.964Z,13.58
2023-04-02T10:06:01.902Z,12.70
2023-04-02T10:07:01.849Z,13.11
2023-04-02T10:08:01.820Z,13.35
2023-04-02T10:09:01.782Z,13.58
2023-04-02T10:10:01.792Z,13.01
2023-04-02T10:11:01.718Z,12.87
2023-04-02T10:12:01.711Z,13.64
2023-04-02T10:13:03.429Z,13.82
2023-04-02T10:14:01.623Z,14.26
2023-04-02T10:15:01.655Z,14.67
2023-04-02T10:16:01.587Z,14.04
2023-04-02T10:17:01.623Z,13.56
2023-04-02T10:18:01.633Z,13.57
2023-04-02T10:19:01.602Z,13.63
2023-04-02T10:20:01.651Z,13.50
2023-04-02T10:21:01.600Z,12.81
2023-04-02T10:22:01.598Z,13.26
2023-04-02T10:23:01.588Z,13.78
2023-04-02T10:24:01.611Z,13.85
2023-04-02T10:25:01.680Z,13.81
2023-04-02T10:26:01.593Z,13.81
2023-04-02T10:27:02.538Z,13.56
2023-04-02T10:28:01.539Z,13.97
2023-04-02T10:29:01.446Z,14.27
2023-04-02T10:30:01.415Z,13.45
2023-04-02T10:31:01.413Z,13.46
2023-04-02T10:32:01.911Z,13.56
2023-04-02T10:33:01.332Z,13.88
2023-04-02T10:34:01.213Z,14.51
2023-04-02T10:35:01.184Z,14.71
2023-04-02T10:36:01.125Z,14.09
2023-04-02T10:37:01.067Z,14.44
2023-04-02T10:38:01.016Z,13.88
2023-04-02T10:39:00.957Z,13.54
2023-04-02T10:40:00.967Z,13.65
2023-04-02T10:41:00.878Z,13.70
2023-04-02T10:42:00.799Z,13.95
2023-04-02T10:43:00.744Z,14.09
2023-04-02T10:44:12.611Z,14.61
2023-04-02T10:45:01.849Z,14.22
2023-04-02T10:46:00.873Z,13.82
2023-04-02T10:47:00.832Z,14.16
2023-04-02T10:48:00.870Z,14.63
2023-04-02T10:49:00.828Z,14.56
2023-04-02T10:50:00.816Z,14.47
2023-04-02T10:51:01.491Z,14.26
2023-04-02T10:52:00.769Z,14.23
2023-04-02T10:53:00.744Z,14.88
2023-04-02T10:54:00.743Z,14.68
2023-04-02T10:55:00.734Z,14.47
2023-04-02T10:56:00.722Z,13.77
2023-04-02T10:57:00.673Z,14.46
2023-04-02T10:58:01.407Z,13.88
2023-04-02T10:59:00.653Z,13.73
2023-04-02T11:00:00.644Z,13.75
2023-04-02T11:01:00.702Z,13.82
2023-04-02T11:02:00.652Z,13.53
2023-04-02T11:03:01.621Z,13.82
2023-04-02T11:04:00.668Z,13.58
2023-04-02T11:05:01.997Z,12.96
2023-04-02T11:06:00.660Z,13.05
2023-04-02T11:07:13.196Z,13.08
2023-04-02T11:08:01.631Z,13.45
2023-04-02T11:09:00.743Z,14.18
2023-04-02T11:10:01.434Z,14.54
2023-04-02T11:11:01.402Z,14.25
2023-04-02T11:12:00.499Z,14.20
2023-04-02T11:13:01.425Z,14.15
2023-04-02T11:14:00.400Z,14.51
2023-04-02T11:15:00.401Z,14.70
2023-04-02T11:16:00.370Z,15.39
2023-04-02T11:17:01.036Z,15.95
2023-04-02T11:18:00.260Z,16.53
2023-04-02T11:19:00.128Z,16.11
2023-04-02T11:20:00.050Z,16.66
2023-04-02T11:21:00.009Z,15.46
2023-04-02T11:22:01.486Z,14.75
2023-04-02T11:23:02.433Z,15.05
2023-04-02T11:24:00.056Z,14.67
2023-04-02T11:25:00.052Z,14.48
2023-04-02T11:26:00.069Z,14.37
2023-04-02T11:27:00.073Z,13.37
2023-04-02T11:28:00.127Z,12.60
2023-04-02T11:29:00.142Z,12.36
2023-04-02T11:30:00.173Z,12.67
2023-04-02T11:31:00.150Z,12.35
2023-04-02T11:32:00.135Z,12.60
2023-04-02T11:33:00.163Z,12.82
2023-04-02T11:34:00.090Z,12.48
2023-04-02T11:35:06.526Z,12.20
2023-04-02T11:36:01.075Z,11.96
2023-04-02T11:36:59.974Z,12.13
2023-04-02T11:37:59.935Z,11.73
2023-04-02T11:39:14.752Z,11.71
2023-04-02T11:40:01.412Z,11.94
2023-04-02T11:40:59.879Z,11.71
2023-04-02T11:41:59.830Z,11.75
2023-04-02T11:42:59.915Z,12.30
2023-04-02T11:43:59.837Z,12.63
2023-04-02T11:44:59.756Z,12.87
2023-04-02T11:45:59.742Z,12.96
2023-04-02T11:46:59.769Z,12.88
2023-04-02T11:48:00.562Z,12.70
2023-04-02T11:48:59.623Z,12.30
2023-04-02T11:49:59.602Z,12.23
2023-04-02T11:50:59.651Z,12.44
2023-04-02T11:52:11.550Z,12.71
2023-04-02T11:53:00.556Z,11.67
2023-04-02T11:54:00.609Z,11.86
2023-04-02T11:54:59.509Z,11.89
2023-04-02T11:55:59.941Z,11.98
2023-04-02T11:56:59.501Z,11.81
2023-04-02T11:57:59.452Z,11.78
2023-04-02T11:58:59.430Z,11.99
2023-04-02T11:59:59.410Z,11.98
2023-04-02T12:00:59.377Z,11.98
2023-04-02T12:01:59.370Z,12.19
2023-04-02T12:03:00.973Z,12.41
2023-04-02T12:03:59.305Z,12.70
2023-04-02T12:04:59.322Z,12.64
2023-04-02T12:05:59.286Z,12.46
2023-04-02T12:06:59.266Z,12.15
2023-04-02T12:07:59.945Z,11.99
2023-04-02T12:08:59.324Z,11.74
2023-04-02T12:09:59.271Z,11.98
2023-04-02T12:10:59.338Z,12.18
2023-04-02T12:11:59.297Z,12.13
2023-04-02T12:12:59.280Z,12.01
2023-04-02T12:13:59.329Z,12.30
2023-04-02T12:14:59.309Z,12.20
2023-04-02T12:15:59.459Z,11.96
2023-04-02T12:16:59.315Z,12.02
2023-04-02T12:17:59.321Z,12.37
2023-04-02T12:18:59.325Z,12.57
2023-04-02T12:19:59.943Z,12.46
2023-04-02T12:20:59.448Z,12.54
2023-04-02T12:21:59.385Z,12.51
2023-04-02T12:22:59.370Z,12.64
2023-04-02T12:23:59.400Z,12.70
2023-04-02T12:24:59.411Z,12.74
2023-04-02T12:25:59.447Z,12.46
2023-04-02T12:26:59.473Z,12.30
2023-04-02T12:27:59.510Z,12.30
2023-04-02T12:28:59.514Z,12.46
2023-04-02T12:29:59.539Z,12.40
2023-04-02T12:30:59.622Z,12.51
2023-04-02T12:31:59.660Z,12.35
2023-04-02T12:32:59.721Z,12.60
2023-04-02T12:33:59.716Z,12.74
2023-04-02T12:34:59.767Z,12.43
2023-04-02T12:35:59.861Z,12.43
2023-04-02T12:36:59.801Z,12.67
2023-04-02T12:38:00.560Z,12.70
2023-04-02T12:38:59.817Z,11.98
2023-04-02T12:39:59.847Z,12.56
2023-04-02T12:40:59.894Z,12.26
2023-04-02T12:41:59.908Z,12.53
2023-04-02T12:42:59.931Z,12.73
2023-04-02T12:43:59.958Z,12.63
2023-04-02T12:44:59.979Z,12.23
2023-04-02T12:46:00.060Z,12.29
2023-04-02T12:46:59.995Z,12.57
2023-04-02T12:48:00.017Z,12.40
2023-04-02T12:48:59.991Z,12.36
2023-04-02T12:49:59.974Z,13.22
2023-04-02T12:51:02.035Z,13.81
2023-04-02T12:51:59.954Z,14.18
2023-04-02T12:52:59.935Z,14.05
2023-04-02T12:53:59.937Z,13.92
2023-04-02T12:54:59.897Z,14.20
2023-04-02T12:55:59.913Z,14.25
2023-04-02T12:56:59.970Z,14.53
2023-04-02T12:57:59.915Z,14.87
2023-04-02T12:58:59.891Z,14.94
2023-04-02T12:59:59.868Z,14.98
2023-04-02T13:00:59.885Z,14.75
2023-04-02T13:01:59.940Z,13.88
2023-04-02T13:02:59.959Z,14.29
2023-04-02T13:04:00.055Z,14.11
2023-04-02T13:04:59.986Z,13.54
2023-04-02T13:05:59.970Z,13.27
2023-04-02T13:06:59.989Z,13.89
2023-04-02T13:08:00.002Z,13.46